This is the latest recevied weather packets stored in our database for station/object IZ2XCK-13. If no packets are shown the sender has not sent any weather packets the latest 10 day(s).
| Time | Temp. | Humidity | Pressure | Rain* | Wind** | Luminosity | Snow |
|---|---|---|---|---|---|---|---|
| 1777619092 | 12.22° C | 63% | 1028.8 hPa | - | - | - | - |
| 1777617892 | 11.11° C | 69% | 1028.7 hPa | - | - | - | - |
| 1777616692 | 11.67° C | 59% | 1028.5 hPa | - | - | - | - |
| 1777615492 | 11.67° C | 62% | 1028.4 hPa | - | - | - | - |
| 1777614291 | 11.67° C | 57% | 1028.3 hPa | - | - | - | - |
| 1777613091 | 11.11° C | 58% | 1028.1 hPa | - | - | - | - |
| 1777611891 | 11.67° C | 55% | 1028 hPa | - | - | - | - |
| 1777610690 | 10.56° C | 59% | 1027.8 hPa | - | - | - | - |
| 1777609490 | 11.67° C | 55% | 1027.7 hPa | - | - | - | - |
| 1777608290 | 11.67° C | 54% | 1027.5 hPa | - | - | - | - |
| 1777607089 | 11.67° C | 55% | 1027.4 hPa | - | - | - | - |
| 1777605889 | 11.67° C | 55% | 1027.3 hPa | - | - | - | - |
| 1777604689 | 11.11° C | 56% | 1027.2 hPa | - | - | - | - |
| 1777603488 | 12.22° C | 51% | 1027.3 hPa | - | - | - | - |
| 1777602288 | 12.22° C | 51% | 1027.3 hPa | - | - | - | - |
| 1777601088 | 12.22° C | 50% | 1027.3 hPa | - | - | - | - |
| 1777599888 | 11.67° C | 51% | 1027.3 hPa | - | - | - | - |
| 1777598687 | 11.67° C | 52% | 1027.3 hPa | - | - | - | - |
| 1777597487 | 12.22° C | 52% | 1027.3 hPa | - | - | - | - |
| 1777596287 | 12.78° C | 53% | 1027.4 hPa | - | - | - | - |
| 1777595086 | 12.78° C | 57% | 1027.5 hPa | - | - | - | - |
| 1777593886 | 12.22° C | 57% | 1027.3 hPa | - | - | - | - |
| 1777592686 | 12.78° C | 57% | 1027.3 hPa | - | - | - | - |
| 1777591485 | 12.78° C | 62% | 1027.2 hPa | - | - | - | - |
| 1777590285 | 12.78° C | 74% | 1027.1 hPa | - | - | - | - |
* Rain since midnight (hover to see other rain measurements)
** Current wind speed in m/s (hover to see current wind gust speed)